Time;durP1;ratioP1;P1;durP2;ratioP2;P2;SDS_P1;SDS_P2;PMS_P1;PMS_P2;Temp;Humidity;BMP_temperature;BMP_pressure;BME280_temperature;BME280_humidity;BME280_pressure;Samples;Min_cycle;Max_cycle;Signal;HPM_P1;HPM_P2
2022/03/07 00:04:49;;;;;;;15.70;9.68;;;;;;;2.31;44.21;101079.41;21026612;28;20037;-65
2022/03/07 00:14:51;;;;;;;16.55;9.43;;;;;;;2.26;44.80;101081.84;21022422;28;20541;-65
2022/03/07 00:24:52;;;;;;;15.95;9.55;;;;;;;2.05;46.53;101086.38;21025129;28;20102;-64
2022/03/07 00:34:54;;;;;;;14.77;9.05;;;;;;;1.96;46.79;101097.31;21023671;28;20118;-64
2022/03/07 00:44:56;;;;;;;14.25;9.48;;;;;;;1.89;46.98;101097.09;21020871;28;20045;-64
2022/03/07 00:54:57;;;;;;;17.45;9.50;;;;;;;1.79;47.23;101091.66;21023678;28;20044;-64
2022/03/07 01:05:00;;;;;;;15.45;8.65;;;;;;;1.69;48.24;101101.66;21022071;28;20098;-64
2022/03/07 01:15:03;;;;;;;14.50;8.27;;;;;;;1.63;48.18;101110.06;21051699;28;20139;-64
2022/03/07 01:25:06;;;;;;;15.45;9.20;;;;;;;1.58;48.40;101106.44;21052307;28;20048;-65
2022/03/07 01:35:08;;;;;;;15.50;8.50;;;;;;;1.57;47.89;101096.06;21050598;28;20113;-65
2022/03/07 01:45:14;;;;;;;14.57;8.18;;;;;;;1.35;48.93;101099.69;21051504;28;20497;-64
2022/03/07 01:55:16;;;;;;;13.57;7.90;;;;;;;1.23;48.46;101085.53;21045593;28;20056;-64
2022/03/07 02:05:18;;;;;;;15.75;8.70;;;;;;;0.97;49.24;101081.22;21048097;28;20049;-65
2022/03/07 02:15:19;;;;;;;15.85;9.48;;;;;;;0.81;50.04;101078.94;21048579;28;20467;-64
2022/03/07 02:25:21;;;;;;;14.20;9.13;;;;;;;0.55;51.03;101080.63;21036611;28;20795;-64
2022/03/07 02:35:22;;;;;;;16.95;8.85;;;;;;;0.42;51.18;101074.13;21034705;28;20051;-64
2022/03/07 02:45:24;;;;;;;12.95;8.70;;;;;;;0.24;51.17;101075.25;21034994;28;20051;-64
2022/03/07 02:55:25;;;;;;;14.48;8.43;;;;;;;0.14;51.47;101074.81;21032868;28;20497;-64
2022/03/07 03:05:27;;;;;;;17.23;9.13;;;;;;;-0.04;51.95;101077.59;21030376;28;20122;-64
2022/03/07 03:15:28;;;;;;;15.77;9.38;;;;;;;-0.21;52.65;101083.78;21030632;28;20044;-64
2022/03/07 03:25:30;;;;;;;18.27;9.73;;;;;;;-0.19;53.54;101100.16;21031245;28;20555;-65
2022/03/07 03:35:35;;;;;;;19.05;10.18;;;;;;;-0.23;58.84;101113.75;21030274;28;20454;-64
2022/03/07 03:45:37;;;;;;;18.40;10.05;;;;;;;-0.37;61.63;101108.06;21028485;28;20052;-64
2022/03/07 03:55:39;;;;;;;18.50;10.75;;;;;;;-0.44;63.38;101109.47;21028087;28;20116;-64
2022/03/07 04:05:40;;;;;;;20.77;9.07;;;;;;;-0.47;65.47;101116.22;21027756;28;20455;-63
2022/03/07 04:15:41;;;;;;;13.50;7.95;;;;;;;-0.55;65.43;101113.31;21027315;28;20102;-64
2022/03/07 04:25:43;;;;;;;13.02;7.43;;;;;;;-0.60;65.66;101125.13;21045517;22;20138;-69
2022/03/07 04:35:44;;;;;;;12.63;6.38;;;;;;;-0.64;64.40;101121.53;21024597;28;20052;-68
2022/03/07 04:45:46;;;;;;;11.32;6.28;;;;;;;-0.69;64.88;101137.59;21024279;28;20387;-67
2022/03/07 04:55:48;;;;;;;11.57;6.03;;;;;;;-0.86;64.84;101140.34;21024106;28;20052;-68
2022/03/07 05:05:50;;;;;;;11.75;5.68;;;;;;;-0.82;63.93;101160.22;21024122;28;20410;-68
2022/03/07 05:15:52;;;;;;;11.70;6.18;;;;;;;-0.83;63.04;101168.75;21024356;28;20055;-68
2022/03/07 05:25:55;;;;;;;9.02;5.65;;;;;;;-0.92;62.79;101163.22;21023681;28;20043;-69
2022/03/07 05:35:57;;;;;;;10.05;5.75;;;;;;;-0.88;62.45;101171.94;21022358;28;20579;-67
2022/03/07 05:45:58;;;;;;;11.02;5.80;;;;;;;-0.83;62.21;101176.47;21021733;28;20048;-68
2022/03/07 05:56:00;;;;;;;12.68;6.57;;;;;;;-0.82;63.03;101175.63;21027375;28;20048;-67
2022/03/07 06:06:01;;;;;;;11.57;5.93;;;;;;;-0.79;63.72;101186.06;21037687;28;20047;-69
2022/03/07 06:16:03;;;;;;;11.50;6.65;;;;;;;-0.70;63.12;101185.59;21037402;28;20051;-67
2022/03/07 06:26:06;;;;;;;16.65;7.18;;;;;;;-0.60;62.22;101192.00;21037081;28;20106;-67
2022/03/07 06:36:08;;;;;;;14.13;7.50;;;;;;;-0.59;60.40;101193.75;21034274;28;20051;-68
2022/03/07 06:46:10;;;;;;;13.85;7.30;;;;;;;-0.39;59.63;101198.00;21035416;28;20059;-67
2022/03/07 06:56:11;;;;;;;13.30;7.65;;;;;;;-0.19;57.77;101200.53;21037115;28;20052;-66
2022/03/07 07:06:13;;;;;;;14.02;7.60;;;;;;;-0.11;57.01;101205.16;21032332;28;20048;-67
2022/03/07 07:16:14;;;;;;;17.10;7.90;;;;;;;0.08;56.37;101209.34;21032000;28;20044;-67
2022/03/07 07:26:16;;;;;;;16.30;7.72;;;;;;;0.10;54.84;101218.03;21033038;28;20174;-67
2022/03/07 07:36:17;;;;;;;15.02;7.78;;;;;;;0.25;52.03;101239.25;21029468;28;20048;-66
2022/03/07 07:46:20;;;;;;;14.95;7.03;;;;;;;0.30;49.47;101233.38;21029432;28;20049;-66
2022/03/07 07:56:22;;;;;;;13.55;6.78;;;;;;;0.55;47.78;101241.22;21028359;28;20139;-67
2022/03/07 08:06:25;;;;;;;16.08;8.00;;;;;;;0.73;47.08;101243.66;21038530;28;20417;-67
2022/03/07 08:16:26;;;;;;;16.98;8.40;;;;;;;0.82;47.71;101251.72;21049882;28;20044;-67
2022/03/07 08:26:28;;;;;;;16.63;8.60;;;;;;;0.82;48.10;101245.69;21027037;28;20409;-67
2022/03/07 08:36:32;;;;;;;14.88;8.65;;;;;;;1.05;48.26;101236.19;21027324;28;20102;-68
2022/03/07 08:46:34;;;;;;;17.08;9.30;;;;;;;1.28;49.41;101238.78;21024618;28;20049;-68
2022/03/07 08:56:35;;;;;;;14.43;8.75;;;;;;;1.41;50.08;101254.69;21027140;28;20047;-68
2022/03/07 09:06:37;;;;;;;17.95;9.52;;;;;;;1.32;49.02;101259.53;21039027;28;20040;-68
2022/03/07 09:16:39;;;;;;;17.75;10.05;;;;;;;1.84;49.86;101257.03;21032768;28;20474;-68
2022/03/07 09:26:40;;;;;;;19.55;10.15;;;;;;;1.99;47.70;101272.16;21018487;28;20181;-68
2022/03/07 09:36:42;;;;;;;17.90;9.80;;;;;;;2.16;49.09;101268.44;21033197;28;20516;-68
2022/03/07 09:46:44;;;;;;;186.98;71.78;;;;;;;2.63;45.37;101263.84;21043829;28;21143;-68
2022/03/07 09:56:45;;;;;;;16.75;10.27;;;;;;;2.73;46.78;101252.06;21042536;28;20126;-68
2022/03/07 10:06:48;;;;;;;17.17;10.15;;;;;;;2.80;44.55;101266.94;21041630;28;20449;-68
2022/03/07 10:16:50;;;;;;;17.63;10.73;;;;;;;3.37;44.13;101256.50;21044064;28;20044;-65
2022/03/07 10:26:51;;;;;;;16.60;10.15;;;;;;;3.27;42.27;101270.03;21039652;28;20139;-65
2022/03/07 10:36:53;;;;;;;16.00;9.93;;;;;;;2.72;43.88;101264.13;21027155;28;20057;-68
2022/03/07 10:47:05;;;;;;;16.02;9.77;;;;;;;2.94;43.02;101262.19;21027149;28;20048;-68
2022/03/07 10:57:08;;;;;;;17.77;10.23;;;;;;;2.50;44.37;101264.31;21020595;28;20051;-68
2022/03/07 11:07:10;;;;;;;16.65;10.13;;;;;;;2.65;45.14;101254.44;21024589;28;20493;-67
2022/03/07 11:17:14;;;;;;;15.57;9.73;;;;;;;3.19;43.11;101243.94;21027559;28;20417;-67
2022/03/07 11:27:17;;;;;;;17.97;10.17;;;;;;;3.21;43.79;101242.28;21028232;28;20101;-67
2022/03/07 11:37:21;;;;;;;17.67;10.82;;;;;;;3.31;43.28;101226.16;21049418;28;20460;-66
2022/03/07 11:47:22;;;;;;;18.23;10.30;;;;;;;3.33;43.01;101219.31;21024254;28;20041;-66
2022/03/07 11:57:41;;;;;;;18.48;10.02;;;;;;;3.47;42.36;101211.03;21022302;28;20087;-67
2022/03/07 12:07:42;;;;;;;16.38;10.27;;;;;;;3.70;42.25;101204.72;21016004;28;20040;-65
2022/03/07 12:17:51;;;;;;;17.33;10.45;;;;;;;3.75;41.97;101200.53;21022160;28;20487;-67
2022/03/07 12:27:57;;;;;;;19.02;10.80;;;;;;;3.71;39.70;101190.94;21018686;28;20052;-68
2022/03/07 12:37:58;;;;;;;17.48;11.07;;;;;;;3.86;38.12;101160.22;21052277;28;20048;-68
2022/03/07 12:48:01;;;;;;;21.08;11.75;;;;;;;4.07;40.16;101153.78;21054905;28;20051;-68
2022/03/07 12:58:02;;;;;;;20.88;11.68;;;;;;;4.11;38.17;101134.88;21052839;28;20044;-69
2022/03/07 13:08:05;;;;;;;22.10;12.13;;;;;;;4.05;39.94;101124.38;21029290;28;20151;-68
2022/03/07 13:18:06;;;;;;;19.77;11.57;;;;;;;4.16;38.31;101109.91;21019283;28;20056;-68
2022/03/07 13:28:09;;;;;;;20.08;13.07;;;;;;;4.30;38.51;101092.94;21016554;28;20109;-68
2022/03/07 13:38:24;;;;;;;26.33;13.48;;;;;;;4.14;37.43;101098.66;21015106;28;20052;-68
2022/03/07 13:48:26;;;;;;;21.93;12.17;;;;;;;4.33;37.58;101093.03;21013019;28;20052;-67
2022/03/07 13:58:32;;;;;;;18.95;12.23;;;;;;;4.32;37.68;101083.50;21013916;28;20494;-67
2022/03/07 14:08:39;;;;;;;20.85;12.38;;;;;;;4.38;37.55;101068.06;20970264;28;20448;-67
2022/03/07 14:18:41;;;;;;;22.42;13.50;;;;;;;4.45;36.15;101058.69;21018662;28;20072;-67
2022/03/07 14:28:44;;;;;;;19.70;12.55;;;;;;;4.45;37.11;101057.81;21026284;28;20418;-67
2022/03/07 14:38:46;;;;;;;23.00;14.32;;;;;;;4.48;36.11;101050.09;21032555;28;20051;-67
2022/03/07 14:48:47;;;;;;;23.05;13.30;;;;;;;4.46;38.05;101065.63;21038353;28;20097;-67
2022/03/07 14:58:49;;;;;;;21.67;13.70;;;;;;;4.45;36.33;101047.44;21027757;28;20052;-69
2022/03/07 15:08:50;;;;;;;27.23;14.82;;;;;;;4.65;36.35;101051.31;21019439;28;20079;-68
2022/03/07 15:18:52;;;;;;;24.98;15.32;;;;;;;4.45;37.14;101039.66;21023967;28;20121;-68
2022/03/07 15:28:53;;;;;;;24.48;14.68;;;;;;;4.46;35.99;101044.03;21021923;28;20052;-69
2022/03/07 15:38:58;;;;;;;22.70;13.65;;;;;;;4.38;36.67;101062.00;21020984;28;20134;-68
2022/03/07 15:49:01;;;;;;;32.80;14.88;;;;;;;4.34;36.77;101061.06;21020299;28;20569;-68
2022/03/07 15:59:06;;;;;;;24.75;14.80;;;;;;;4.18;37.56;101047.78;21017328;28;20106;-69
2022/03/07 16:09:09;;;;;;;22.37;14.33;;;;;;;4.06;37.84;101043.19;21005765;28;20062;-69
2022/03/07 16:19:13;;;;;;;24.27;14.52;;;;;;;4.09;38.27;101043.28;21019215;28;20100;-68
2022/03/07 16:29:14;;;;;;;27.33;15.57;;;;;;;4.02;37.37;101043.97;21018138;28;20135;-71
2022/03/07 16:39:16;;;;;;;30.98;15.98;;;;;;;3.89;37.42;101044.56;21015461;28;20076;-69
2022/03/07 16:49:18;;;;;;;25.58;15.30;;;;;;;3.78;38.36;101054.66;21017754;28;20076;-68
2022/03/07 16:59:19;;;;;;;25.20;15.55;;;;;;;3.54;39.54;101057.56;21017311;28;20053;-67
2022/03/07 17:09:21;;;;;;;28.33;16.00;;;;;;;3.44;39.80;101064.25;21016738;28;20047;-67
2022/03/07 17:19:23;;;;;;;26.73;15.60;;;;;;;3.26;40.14;101072.47;21020483;28;20052;-67
2022/03/07 17:29:24;;;;;;;29.92;17.83;;;;;;;3.12;40.70;101081.59;21015834;28;20056;-66
2022/03/07 17:39:26;;;;;;;39.08;21.38;;;;;;;3.01;40.84;101083.88;21013224;28;20048;-67
2022/03/07 17:49:28;;;;;;;31.73;18.27;;;;;;;2.80;41.63;101094.56;21011400;28;20078;-65
2022/03/07 17:59:31;;;;;;;37.03;21.17;;;;;;;2.73;41.27;101096.91;21029624;28;20098;-66
2022/03/07 18:09:33;;;;;;;31.55;17.80;;;;;;;2.68;42.13;101099.38;21038907;28;20468;-67
2022/03/07 18:19:35;;;;;;;30.85;18.33;;;;;;;2.51;42.93;101098.06;21029228;28;20624;-66
2022/03/07 18:29:36;;;;;;;29.70;17.98;;;;;;;2.28;44.34;101116.34;21030366;28;20052;-66
2022/03/07 18:39:41;;;;;;;31.40;17.35;;;;;;;2.21;44.35;101129.06;21028585;28;20983;-66
2022/03/07 18:49:43;;;;;;;33.42;18.40;;;;;;;2.09;45.47;101129.56;21033407;28;20451;-67
2022/03/07 18:59:51;;;;;;;32.25;17.48;;;;;;;1.94;45.66;101134.25;21032958;28;20046;-67
2022/03/07 19:09:52;;;;;;;29.27;17.40;;;;;;;1.88;46.17;101147.00;21029632;28;20045;-68
2022/03/07 19:19:54;;;;;;;34.65;19.77;;;;;;;1.63;46.74;101148.78;21029495;28;20096;-68
2022/03/07 19:29:55;;;;;;;33.05;18.65;;;;;;;1.63;46.34;101153.97;21023737;28;20052;-68
2022/03/07 19:39:56;;;;;;;37.05;19.70;;;;;;;1.41;47.17;101174.72;21029652;28;20473;-68
2022/03/07 19:49:58;;;;;;;35.45;19.25;;;;;;;1.33;47.90;101178.72;21024607;28;20079;-67
2022/03/07 20:00:00;;;;;;;37.42;19.15;;;;;;;1.07;48.53;101191.59;21019219;28;20136;-67
2022/03/07 20:10:03;;;;;;;38.63;19.10;;;;;;;1.04;49.08;101186.31;21024445;28;20082;-67
2022/03/07 20:20:06;;;;;;;36.88;19.83;;;;;;;0.85;49.40;101196.81;21025204;28;20072;-68
2022/03/07 20:30:10;;;;;;;35.67;18.05;;;;;;;0.81;49.79;101192.34;21017118;28;20060;-67
2022/03/07 20:40:12;;;;;;;37.60;21.75;;;;;;;0.55;51.08;101192.28;21033475;28;20084;-68
2022/03/07 20:50:15;;;;;;;41.38;19.92;;;;;;;0.42;51.84;101197.78;21028045;28;20562;-68
2022/03/07 21:00:21;;;;;;;33.47;18.95;;;;;;;0.25;52.22;101202.31;21018016;28;20058;-67
2022/03/07 21:10:23;;;;;;;36.60;19.17;;;;;;;0.17;53.51;101212.28;21018233;28;20450;-67
2022/03/07 21:20:24;;;;;;;38.42;20.50;;;;;;;-0.05;53.88;101212.25;21019268;28;20305;-67
2022/03/07 21:30:26;;;;;;;39.42;20.75;;;;;;;-0.19;54.53;101205.66;21035696;28;20072;-67
2022/03/07 21:40:27;;;;;;;30.33;17.55;;;;;;;-0.30;54.61;101193.25;21028802;28;20052;-68
2022/03/07 21:50:29;;;;;;;33.47;16.88;;;;;;;-0.36;55.19;101193.00;21039061;28;20832;-67
2022/03/07 22:00:30;;;;;;;37.28;18.42;;;;;;;-0.49;56.13;101183.00;21041809;28;20055;-67
2022/03/07 22:10:33;;;;;;;33.67;17.58;;;;;;;-0.64;56.85;101165.25;21035446;28;20040;-67
2022/03/07 22:20:35;;;;;;;31.27;16.67;;;;;;;-0.87;57.69;101165.97;21129461;23;20074;-66
2022/03/07 22:30:36;;;;;;;35.28;18.40;;;;;;;-1.16;59.42;101164.72;20986861;28;20106;-66
2022/03/07 22:40:37;;;;;;;32.15;16.55;;;;;;;-1.17;58.90;101155.28;20982816;28;20056;-64
2022/03/07 22:50:39;;;;;;;35.20;17.65;;;;;;;-1.12;58.39;101151.19;20985076;28;20057;-64
2022/03/07 23:00:42;;;;;;;33.53;16.73;;;;;;;-1.00;57.91;101161.16;20984353;28;20109;-65
2022/03/07 23:10:44;;;;;;;32.20;15.70;;;;;;;-0.68;56.39;101153.09;20990493;28;20473;-64
2022/03/07 23:20:46;;;;;;;27.23;15.02;;;;;;;-0.69;56.42;101153.03;20990268;28;20060;-64
2022/03/07 23:30:48;;;;;;;30.98;14.75;;;;;;;-0.81;56.97;101156.84;20990525;28;20650;-64
2022/03/07 23:40:50;;;;;;;28.38;14.88;;;;;;;-0.81;57.03;101138.84;20990338;28;20075;-65
2022/03/07 23:50:52;;;;;;;31.25;15.85;;;;;;;-0.88;57.22;101144.53;20988512;28;20045;-64
